Time;durP1;ratioP1;P1;durP2;ratioP2;P2;SDS_P1;SDS_P2;PMS_P1;PMS_P2;Temp;Humidity;BMP_temperature;BMP_pressure;BME280_temperature;BME280_humidity;BME280_pressure;Samples;Min_cycle;Max_cycle;Signal;HPM_P1;HPM_P2
2021/01/26 00:01:52;;;;;;;21.20;14.47;;;1.90;99.90;;;;;;5110635;28;20210;-71
2021/01/26 00:04:18;;;;;;;20.60;14.00;;;1.90;99.90;;;;;;5110729;28;20606;-71
2021/01/26 00:06:45;;;;;;;21.77;14.97;;;1.90;99.90;;;;;;5110928;28;20202;-71
2021/01/26 00:09:11;;;;;;;21.47;14.63;;;1.90;99.90;;;;;;5110511;28;20206;-71
2021/01/26 00:11:37;;;;;;;22.83;14.53;;;2.00;99.90;;;;;;5110596;28;20233;-71
2021/01/26 00:14:03;;;;;;;17.03;14.00;;;2.00;99.90;;;;;;5110238;27;20239;-71
2021/01/26 00:16:30;;;;;;;20.27;15.10;;;2.00;99.90;;;;;;5110336;28;20206;-71
2021/01/26 00:18:57;;;;;;;19.83;14.07;;;2.00;99.90;;;;;;5110084;28;20225;-71
2021/01/26 00:21:23;;;;;;;16.87;13.43;;;2.00;99.90;;;;;;5110075;28;20664;-71
2021/01/26 00:23:49;;;;;;;19.80;14.10;;;2.00;99.90;;;;;;5110110;28;20210;-71
2021/01/26 00:26:17;;;;;;;18.17;13.47;;;1.90;99.90;;;;;;5110266;28;20772;-71
2021/01/26 00:28:43;;;;;;;19.97;14.07;;;1.90;99.90;;;;;;5109668;28;20216;-72
2021/01/26 00:31:10;;;;;;;16.53;12.97;;;1.90;99.90;;;;;;5110158;28;20300;-71
2021/01/26 00:33:37;;;;;;;21.13;14.03;;;1.80;99.90;;;;;;5109828;28;20210;-71
2021/01/26 00:36:03;;;;;;;19.80;13.47;;;1.80;99.90;;;;;;5109998;28;20613;-72
2021/01/26 00:38:29;;;;;;;19.03;13.50;;;1.80;99.90;;;;;;5109900;28;20255;-71
2021/01/26 00:40:55;;;;;;;17.47;13.67;;;1.80;99.90;;;;;;5109904;28;20202;-72
2021/01/26 00:43:22;;;;;;;20.83;15.00;;;1.80;99.90;;;;;;5109293;28;20612;-72
2021/01/26 00:45:48;;;;;;;16.30;12.73;;;1.80;99.90;;;;;;5109772;28;20693;-71
2021/01/26 00:48:15;;;;;;;19.93;14.23;;;1.80;99.90;;;;;;5109981;28;20206;-71
2021/01/26 00:50:42;;;;;;;19.50;13.97;;;1.70;99.90;;;;;;5109923;28;20271;-72
2021/01/26 00:53:09;;;;;;;20.43;14.57;;;1.70;99.90;;;;;;5109691;28;20214;-71
2021/01/26 00:55:36;;;;;;;19.97;14.67;;;1.80;99.90;;;;;;5109934;28;20212;-71
2021/01/26 00:58:02;;;;;;;20.43;14.37;;;1.80;99.90;;;;;;5109121;28;20606;-72
2021/01/26 01:00:34;;;;;;;20.97;14.50;;;1.70;99.90;;;;;;5109770;28;20202;-71
2021/01/26 01:03:00;;;;;;;21.83;14.43;;;1.80;99.90;;;;;;5109562;28;20413;-71
2021/01/26 01:05:26;;;;;;;20.07;15.43;;;1.70;99.90;;;;;;5109207;28;20213;-71
2021/01/26 01:07:54;;;;;;;19.30;14.83;;;1.80;99.90;;;;;;5109357;28;20210;-71
2021/01/26 01:10:24;;;;;;;21.93;15.33;;;1.70;99.90;;;;;;5109390;28;20230;-70
2021/01/26 01:12:50;;;;;;;19.80;14.70;;;1.80;99.90;;;;;;5109621;28;20221;-70
2021/01/26 01:15:18;;;;;;;22.27;15.13;;;1.80;99.90;;;;;;5109325;28;20217;-71
2021/01/26 01:17:45;;;;;;;23.93;16.03;;;1.80;99.90;;;;;;5108996;28;20203;-70
2021/01/26 01:20:13;;;;;;;20.93;15.37;;;1.70;99.90;;;;;;5108952;28;20241;-70
2021/01/26 01:22:39;;;;;;;20.13;15.60;;;1.70;99.90;;;;;;5109156;28;20206;-72
2021/01/26 01:25:08;;;;;;;22.83;15.17;;;1.70;99.90;;;;;;5108615;28;20385;-73
2021/01/26 01:27:34;;;;;;;22.90;16.03;;;1.70;99.90;;;;;;5109156;28;20202;-72
2021/01/26 01:30:00;;;;;;;20.47;15.27;;;1.70;99.90;;;;;;5108913;28;20220;-72
2021/01/26 01:32:26;;;;;;;21.90;15.97;;;1.70;99.90;;;;;;5108978;28;20255;-71
2021/01/26 01:34:53;;;;;;;21.00;15.07;;;1.70;99.90;;;;;;5109102;28;20209;-72
2021/01/26 01:37:19;;;;;;;23.50;15.10;;;1.60;99.90;;;;;;5108762;28;20216;-72
2021/01/26 01:39:45;;;;;;;22.03;15.90;;;1.70;99.90;;;;;;5108800;28;20229;-72
2021/01/26 01:42:13;;;;;;;24.30;16.20;;;1.70;99.90;;;;;;5108355;28;20572;-72
2021/01/26 01:44:39;;;;;;;24.90;16.07;;;1.70;99.90;;;;;;5108851;28;20206;-72
2021/01/26 01:47:11;;;;;;;21.07;15.10;;;1.70;99.90;;;;;;5108455;28;20292;-72
2021/01/26 01:49:43;;;;;;;19.97;15.63;;;1.70;99.90;;;;;;5108529;28;20236;-72
2021/01/26 01:52:13;;;;;;;19.60;15.50;;;1.70;99.90;;;;;;5108672;28;20198;-72
2021/01/26 01:54:43;;;;;;;22.57;15.13;;;1.70;99.90;;;;;;5108465;28;20202;-72
2021/01/26 01:57:20;;;;;;;19.67;15.27;;;1.60;99.90;;;;;;5108128;28;20210;-72
2021/01/26 01:59:51;;;;;;;19.17;14.33;;;1.60;99.90;;;;;;5108142;28;20229;-72
2021/01/26 02:02:18;;;;;;;20.73;14.10;;;1.60;99.90;;;;;;5108978;28;20190;-72
2021/01/26 02:04:44;;;;;;;20.53;14.77;;;1.60;99.90;;;;;;5108555;28;20198;-72
2021/01/26 02:07:11;;;;;;;20.63;14.63;;;1.60;99.90;;;;;;5108729;28;20206;-72
2021/01/26 02:09:41;;;;;;;19.93;14.67;;;1.60;99.90;;;;;;5108476;28;20251;-72
2021/01/26 02:12:10;;;;;;;20.10;14.17;;;1.50;99.90;;;;;;5108518;28;20250;-72
2021/01/26 02:14:42;;;;;;;20.53;13.87;;;1.60;99.90;;;;;;5098610;28;20211;-72
2021/01/26 02:17:19;;;;;;;17.27;12.97;;;1.50;99.90;;;;;;5088257;28;20190;-72
2021/01/26 02:20:29;;;;;;;20.23;14.10;;;1.50;99.90;;;;;;5087970;28;20255;-72
2021/01/26 02:23:25;;;;;;;20.47;14.83;;;1.50;99.90;;;;;;5087997;28;20641;-71
2021/01/26 02:26:20;;;;;;;20.83;14.17;;;1.50;99.90;;;;;;5088190;28;20203;-71
2021/01/26 02:28:55;;;;;;;18.50;13.67;;;1.50;99.90;;;;;;5087996;28;20267;-71
2021/01/26 02:31:55;;;;;;;19.17;13.87;;;1.40;99.90;;;;;;5088145;28;20216;-71
2021/01/26 02:35:06;;;;;;;23.07;13.80;;;1.40;99.90;;;;;;5088086;28;20590;-72
2021/01/26 02:38:06;;;;;;;18.97;13.37;;;1.40;99.90;;;;;;5088138;28;20230;-71
2021/01/26 02:40:39;;;;;;;16.67;13.17;;;1.40;99.90;;;;;;5087587;28;20728;-71
2021/01/26 02:43:27;;;;;;;19.43;13.60;;;1.40;99.90;;;;;;5087896;28;20194;-72
2021/01/26 02:46:07;;;;;;;18.87;13.03;;;1.50;99.90;;;;;;5088339;28;20199;-71
2021/01/26 02:49:06;;;;;;;16.37;12.80;;;1.40;99.90;;;;;;5087706;28;20309;-71
2021/01/26 02:51:48;;;;;;;17.23;13.37;;;1.40;99.90;;;;;;5087888;28;20199;-71
2021/01/26 02:54:23;;;;;;;20.10;14.37;;;1.30;99.90;;;;;;5087755;28;20195;-71
2021/01/26 02:56:57;;;;;;;14.83;12.17;;;1.30;99.90;;;;;;5087289;28;20186;-71
2021/01/26 02:59:29;;;;;;;19.60;13.37;;;1.20;99.90;;;;;;5087588;28;20222;-71
2021/01/26 03:01:59;;;;;;;18.90;13.47;;;1.20;99.90;;;;;;5087395;28;20191;-72
2021/01/26 03:04:34;;;;;;;18.27;12.70;;;1.10;99.90;;;;;;5087476;28;20206;-71
2021/01/26 03:07:02;;;;;;;18.03;12.57;;;1.10;99.90;;;;;;5090468;28;20194;-71
2021/01/26 03:09:32;;;;;;;18.50;12.80;;;1.00;99.90;;;;;;5091104;28;20237;-71
2021/01/26 03:12:03;;;;;;;19.10;13.17;;;1.00;99.90;;;;;;5091313;28;20263;-71
2021/01/26 03:14:34;;;;;;;15.83;12.17;;;1.00;99.90;;;;;;5091205;28;20285;-71
2021/01/26 03:17:08;;;;;;;19.87;12.57;;;1.00;99.90;;;;;;5091280;28;20221;-71
2021/01/26 03:19:36;;;;;;;19.03;12.57;;;0.90;99.90;;;;;;5091133;28;20214;-71
2021/01/26 03:22:04;;;;;;;17.43;12.23;;;0.90;99.90;;;;;;5090861;28;20210;-71
2021/01/26 03:24:35;;;;;;;17.67;13.23;;;0.90;99.90;;;;;;5091067;28;20211;-71
2021/01/26 03:27:08;;;;;;;20.80;13.43;;;0.90;99.90;;;;;;5090782;28;20191;-71
2021/01/26 03:29:38;;;;;;;18.60;13.00;;;0.90;99.90;;;;;;5090809;28;20195;-71
2021/01/26 03:32:09;;;;;;;17.80;12.90;;;0.80;99.90;;;;;;5090747;28;20206;-72
2021/01/26 03:34:36;;;;;;;20.63;12.23;;;0.70;99.90;;;;;;5090665;28;20195;-71
2021/01/26 03:37:03;;;;;;;20.57;13.03;;;0.80;99.90;;;;;;5090513;28;20233;-71
2021/01/26 03:39:30;;;;;;;15.93;12.53;;;0.80;99.90;;;;;;5090592;28;20235;-71
2021/01/26 03:41:56;;;;;;;18.20;13.47;;;0.90;99.90;;;;;;5090410;28;20211;-71
2021/01/26 03:44:23;;;;;;;17.53;12.23;;;1.00;99.90;;;;;;5090394;28;20217;-71
2021/01/26 03:47:08;;;;;;;15.63;12.80;;;1.10;99.90;;;;;;5090555;28;20243;-71
2021/01/26 03:49:52;;;;;;;16.90;12.23;;;1.00;99.90;;;;;;5090507;28;20557;-71
2021/01/26 03:52:38;;;;;;;16.17;12.60;;;1.10;99.90;;;;;;5090599;28;20195;-71
2021/01/26 03:55:17;;;;;;;19.43;13.23;;;1.10;99.90;;;;;;5090013;28;20190;-71
2021/01/26 03:58:00;;;;;;;18.27;13.10;;;1.10;99.90;;;;;;5089870;28;20724;-72
2021/01/26 04:00:34;;;;;;;15.87;12.70;;;1.10;99.90;;;;;;5090400;28;20228;-72
2021/01/26 04:03:19;;;;;;;16.80;12.97;;;1.10;99.90;;;;;;5090094;28;20195;-72
2021/01/26 04:05:51;;;;;;;19.17;12.80;;;1.10;99.90;;;;;;5090126;28;20187;-71
2021/01/26 04:08:21;;;;;;;15.27;12.33;;;1.00;99.90;;;;;;5099149;28;20192;-71
2021/01/26 04:10:55;;;;;;;16.60;13.17;;;1.00;99.90;;;;;;5101209;28;20736;-71
2021/01/26 04:13:26;;;;;;;20.03;12.90;;;0.90;99.90;;;;;;5110354;28;20195;-72
2021/01/26 04:15:57;;;;;;;19.47;13.27;;;0.90;99.90;;;;;;5110205;27;20190;-72
2021/01/26 04:18:28;;;;;;;18.77;12.77;;;0.80;99.90;;;;;;5107874;28;20198;-72
2021/01/26 04:20:57;;;;;;;17.73;13.33;;;0.80;99.90;;;;;;5106203;28;20600;-72
2021/01/26 04:23:24;;;;;;;16.03;13.17;;;0.80;99.90;;;;;;5106464;28;20668;-72
2021/01/26 04:25:51;;;;;;;17.23;13.37;;;0.70;99.90;;;;;;5106789;28;20206;-72
2021/01/26 04:28:24;;;;;;;21.90;14.20;;;0.70;99.90;;;;;;5106362;28;20214;-72
2021/01/26 04:30:50;;;;;;;16.80;12.97;;;0.80;99.90;;;;;;5102978;28;20683;-72
2021/01/26 04:33:18;;;;;;;25.47;21.93;;;0.80;99.90;;;;;;5096514;28;20263;-72
2021/01/26 04:35:44;;;;;;;25.90;20.10;;;0.80;99.90;;;;;;5094407;28;20726;-72
2021/01/26 04:38:10;;;;;;;21.27;14.77;;;0.90;99.90;;;;;;5095052;28;20198;-72
2021/01/26 04:40:37;;;;;;;18.30;13.50;;;0.90;99.90;;;;;;5105182;28;20598;-72
2021/01/26 04:43:10;;;;;;;20.27;13.57;;;0.90;99.90;;;;;;5106058;28;20604;-72
2021/01/26 04:45:44;;;;;;;18.57;12.67;;;0.90;99.90;;;;;;5106068;28;20205;-72
2021/01/26 04:48:15;;;;;;;16.87;13.23;;;0.90;99.90;;;;;;5106312;28;20198;-72
2021/01/26 04:50:50;;;;;;;16.67;12.93;;;0.90;99.90;;;;;;5106164;28;20202;-72
2021/01/26 04:53:44;;;;;;;20.93;13.37;;;0.90;99.90;;;;;;5106295;28;20194;-72
2021/01/26 04:56:19;;;;;;;17.37;13.50;;;0.90;99.90;;;;;;5105943;28;20205;-72
2021/01/26 04:58:58;;;;;;;20.17;13.13;;;0.80;99.90;;;;;;5105609;28;20245;-72
2021/01/26 05:01:43;;;;;;;16.07;12.90;;;0.80;99.90;;;;;;5106556;27;20293;-71
2021/01/26 05:04:13;;;;;;;18.20;12.90;;;0.80;99.90;;;;;;5122879;27;20194;-72
2021/01/26 05:06:47;;;;;;;17.97;13.23;;;0.80;99.90;;;;;;5117377;27;20208;-72
2021/01/26 05:09:17;;;;;;;18.10;13.30;;;0.80;99.90;;;;;;5116650;27;20182;-71
2021/01/26 05:11:44;;;;;;;19.30;12.87;;;0.70;99.90;;;;;;5117843;27;20489;-72
2021/01/26 05:14:16;;;;;;;17.27;13.67;;;0.80;99.90;;;;;;5118804;27;20637;-71
2021/01/26 05:16:51;;;;;;;18.50;12.27;;;0.70;99.90;;;;;;5118489;27;20235;-72
2021/01/26 05:19:25;;;;;;;19.30;13.33;;;0.70;99.90;;;;;;5115818;27;20213;-72
2021/01/26 05:22:00;;;;;;;17.83;12.87;;;0.70;99.90;;;;;;5117381;27;20190;-72
2021/01/26 05:24:31;;;;;;;17.57;13.07;;;0.70;99.90;;;;;;5117636;27;20189;-71
2021/01/26 05:26:58;;;;;;;16.90;12.73;;;0.70;99.90;;;;;;5116941;27;20193;-72
2021/01/26 05:29:24;;;;;;;16.83;12.63;;;0.70;99.90;;;;;;5118934;27;20209;-71
2021/01/26 05:31:58;;;;;;;14.10;11.97;;;0.70;99.90;;;;;;5119651;27;20239;-72
2021/01/26 05:34:25;;;;;;;17.20;12.83;;;0.70;99.90;;;;;;5115704;27;20213;-72
2021/01/26 05:36:52;;;;;;;16.40;12.83;;;0.70;99.90;;;;;;5113702;27;20255;-72
2021/01/26 05:39:28;;;;;;;17.43;12.87;;;0.70;99.90;;;;;;5119850;27;20315;-72
2021/01/26 05:41:56;;;;;;;17.40;12.33;;;0.70;99.90;;;;;;5114227;27;20269;-71
2021/01/26 05:44:22;;;;;;;16.50;13.00;;;0.70;99.90;;;;;;5116982;27;20198;-71
2021/01/26 05:46:49;;;;;;;15.27;12.30;;;0.70;99.90;;;;;;5119399;27;20198;-72
2021/01/26 05:49:32;;;;;;;15.20;11.63;;;0.70;99.90;;;;;;5113914;27;20198;-72
2021/01/26 05:52:00;;;;;;;16.40;11.97;;;0.80;99.90;;;;;;5115268;27;20197;-71
2021/01/26 05:54:29;;;;;;;15.37;11.80;;;0.70;99.90;;;;;;5119544;27;20197;-72
2021/01/26 05:56:56;;;;;;;14.87;12.27;;;0.70;99.90;;;;;;5114480;27;20196;-71
2021/01/26 05:59:28;;;;;;;14.47;12.37;;;0.70;99.90;;;;;;5113857;27;20236;-71
2021/01/26 06:01:55;;;;;;;15.77;11.93;;;0.70;99.90;;;;;;5110395;28;20566;-72
2021/01/26 06:04:29;;;;;;;15.80;12.03;;;0.60;99.90;;;;;;5117669;28;20198;-72
2021/01/26 06:06:57;;;;;;;14.73;11.43;;;0.40;99.90;;;;;;5108447;28;20201;-71
2021/01/26 06:09:38;;;;;;;15.93;12.37;;;0.40;99.90;;;;;;5118577;28;20313;-72
2021/01/26 06:12:11;;;;;;;14.50;11.93;;;0.40;99.90;;;;;;5117363;28;20194;-72
2021/01/26 06:14:38;;;;;;;15.27;12.10;;;0.40;99.90;;;;;;5111173;28;20198;-71
2021/01/26 06:17:06;;;;;;;16.03;12.43;;;0.40;99.90;;;;;;5126878;28;20257;-72
2021/01/26 06:19:33;;;;;;;14.10;11.57;;;0.30;99.90;;;;;;5110616;27;20282;-71
2021/01/26 06:21:59;;;;;;;14.67;11.43;;;0.30;99.90;;;;;;5108385;28;20566;-72
2021/01/26 06:24:29;;;;;;;29.17;25.80;;;0.30;99.90;;;;;;5117136;28;20246;-72
2021/01/26 06:27:24;;;;;;;17.70;14.23;;;0.30;99.90;;;;;;5114933;28;20255;-71
2021/01/26 06:30:01;;;;;;;14.43;11.40;;;0.30;99.90;;;;;;5116226;28;20238;-72
2021/01/26 06:32:39;;;;;;;14.17;11.10;;;0.30;99.90;;;;;;5119730;27;20197;-71
2021/01/26 06:35:15;;;;;;;16.87;11.33;;;0.30;99.90;;;;;;5111565;28;20190;-71
2021/01/26 06:38:23;;;;;;;13.27;10.73;;;0.20;99.90;;;;;;5115793;28;20193;-71
2021/01/26 06:41:01;;;;;;;15.10;11.03;;;0.20;99.90;;;;;;5036416;28;20226;-71
2021/01/26 06:43:43;;;;;;;16.13;11.67;;;0.20;99.90;;;;;;5027507;28;20200;-71
2021/01/26 06:46:19;;;;;;;16.33;11.23;;;0.10;99.90;;;;;;5087406;27;20255;-71
2021/01/26 06:48:54;;;;;;;13.00;10.87;;;0.10;99.90;;;;;;5123234;27;20189;-71
2021/01/26 06:51:33;;;;;;;18.87;11.97;;;0.10;99.90;;;;;;5108110;27;20219;-72
2021/01/26 06:54:19;;;;;;;13.53;10.53;;;0.10;99.90;;;;;;5109566;27;20246;-72
2021/01/26 06:57:17;;;;;;;15.43;11.07;;;0.10;99.90;;;;;;5122525;27;20193;-71
2021/01/26 07:00:12;;;;;;;14.87;10.93;;;0.20;99.90;;;;;;5120560;27;20225;-71
2021/01/26 07:03:15;;;;;;;14.57;10.37;;;0.30;99.90;;;;;;5120092;27;20560;-72
2021/01/26 07:06:01;;;;;;;14.90;11.27;;;0.30;99.90;;;;;;5120807;27;20212;-72
2021/01/26 07:09:04;;;;;;;16.37;11.53;;;0.50;99.90;;;;;;5121887;27;20197;-71
2021/01/26 07:12:09;;;;;;;14.53;11.43;;;0.50;99.90;;;;;;5117638;27;20234;-71
2021/01/26 07:14:58;;;;;;;16.80;11.80;;;0.50;99.90;;;;;;5118382;27;20598;-71
2021/01/26 07:17:33;;;;;;;13.10;11.20;;;0.50;99.90;;;;;;5111210;27;20187;-71
2021/01/26 07:20:12;;;;;;;12.67;10.63;;;0.50;99.90;;;;;;5117532;27;20223;-71
2021/01/26 07:23:20;;;;;;;16.83;11.27;;;0.50;99.90;;;;;;5117818;27;20190;-71
2021/01/26 07:25:59;;;;;;;14.40;11.43;;;0.60;99.90;;;;;;5121509;27;20193;-71
2021/01/26 07:28:42;;;;;;;16.30;11.23;;;0.60;99.90;;;;;;5118564;27;20282;-71
2021/01/26 07:31:13;;;;;;;18.87;16.07;;;0.50;99.90;;;;;;5121386;27;20409;-71
2021/01/26 07:33:49;;;;;;;15.43;12.70;;;0.60;99.90;;;;;;5123580;27;20213;-71
2021/01/26 07:36:24;;;;;;;15.80;12.27;;;0.70;99.90;;;;;;5117698;27;20205;-71
2021/01/26 07:39:00;;;;;;;12.07;10.23;;;0.70;99.90;;;;;;5117085;27;20701;-71
2021/01/26 07:41:34;;;;;;;11.73;10.17;;;0.90;99.90;;;;;;5119491;27;20741;-71
2021/01/26 07:44:09;;;;;;;14.47;10.77;;;0.90;99.90;;;;;;5119054;27;20569;-71
2021/01/26 07:46:46;;;;;;;13.50;11.20;;;0.90;99.90;;;;;;5118466;27;20205;-71
2021/01/26 07:49:18;;;;;;;14.10;10.77;;;0.80;99.90;;;;;;5111917;27;20206;-71
2021/01/26 07:51:49;;;;;;;14.07;11.00;;;0.80;99.90;;;;;;5121644;27;20190;-71
2021/01/26 07:54:24;;;;;;;12.43;10.57;;;0.80;99.90;;;;;;5119643;27;20186;-71
2021/01/26 07:56:51;;;;;;;14.13;10.40;;;0.80;99.90;;;;;;5117316;27;20197;-71
2021/01/26 07:59:23;;;;;;;15.40;10.73;;;0.80;99.90;;;;;;5116013;27;20748;-71
2021/01/26 08:01:53;;;;;;;13.07;10.27;;;0.80;99.90;;;;;;5116525;27;20198;-71
2021/01/26 08:04:20;;;;;;;13.13;10.80;;;0.90;99.90;;;;;;5119531;27;20334;-71
2021/01/26 08:06:55;;;;;;;14.53;10.70;;;0.90;99.90;;;;;;5118557;27;20197;-71
2021/01/26 08:09:27;;;;;;;12.83;10.33;;;0.80;99.90;;;;;;5130121;27;20286;-71
2021/01/26 08:11:58;;;;;;;14.20;11.27;;;0.80;99.90;;;;;;5130834;27;20190;-71
2021/01/26 08:14:27;;;;;;;14.13;11.13;;;0.70;99.90;;;;;;5108934;27;20675;-71
2021/01/26 08:16:56;;;;;;;12.67;11.03;;;0.70;99.90;;;;;;5097821;28;20649;-71
2021/01/26 08:19:26;;;;;;;13.13;10.70;;;0.70;99.90;;;;;;5106167;27;20259;-71
2021/01/26 08:21:53;;;;;;;14.20;11.07;;;0.60;99.90;;;;;;5111276;27;20207;-71
2021/01/26 08:24:35;;;;;;;13.77;11.27;;;0.60;99.90;;;;;;5109821;28;20210;-71
2021/01/26 08:27:48;;;;;;;13.47;11.40;;;0.50;99.90;;;;;;5107610;27;20202;-71
2021/01/26 08:30:24;;;;;;;15.70;11.80;;;0.50;99.90;;;;;;5068432;28;20209;-71
2021/01/26 08:33:16;;;;;;;14.70;11.40;;;0.60;99.90;;;;;;5125165;27;20212;-71
2021/01/26 08:36:01;;;;;;;14.70;11.70;;;0.50;99.90;;;;;;5118697;27;20198;-71
2021/01/26 08:39:02;;;;;;;14.10;11.27;;;0.50;99.90;;;;;;5111182;27;20209;-71
2021/01/26 08:41:44;;;;;;;14.00;11.23;;;0.70;99.90;;;;;;5056657;28;20199;-71
2021/01/26 08:44:30;;;;;;;13.77;11.17;;;0.70;99.90;;;;;;5109803;27;20229;-71
2021/01/26 08:46:57;;;;;;;14.43;11.50;;;0.80;99.90;;;;;;5112203;27;20198;-71
2021/01/26 08:49:27;;;;;;;14.97;11.60;;;0.80;99.90;;;;;;5117836;27;21038;-71
2021/01/26 08:51:54;;;;;;;15.40;12.17;;;0.80;99.90;;;;;;5112557;27;20195;-71
2021/01/26 08:54:41;;;;;;;18.40;11.70;;;0.90;99.90;;;;;;5114555;27;20202;-71
2021/01/26 08:57:42;;;;;;;13.47;11.07;;;1.10;99.90;;;;;;5113833;27;20202;-70
2021/01/26 09:00:41;;;;;;;15.13;12.70;;;1.30;99.90;;;;;;5114156;27;20206;-71
2021/01/26 09:03:33;;;;;;;14.97;12.70;;;1.40;99.90;;;;;;5115497;27;20922;-71
2021/01/26 09:06:02;;;;;;;14.60;11.77;;;1.50;99.90;;;;;;5117194;27;20194;-71
2021/01/26 09:08:52;;;;;;;15.13;12.43;;;1.70;99.90;;;;;;5117288;27;20201;-71
2021/01/26 09:11:36;;;;;;;14.13;11.67;;;1.90;99.90;;;;;;5118072;27;20246;-71
2021/01/26 09:14:12;;;;;;;16.03;11.53;;;2.00;99.90;;;;;;5117598;27;20214;-71
2021/01/26 09:16:41;;;;;;;13.60;11.77;;;2.00;99.90;;;;;;5109858;27;20204;-71
2021/01/26 09:19:19;;;;;;;15.57;11.07;;;2.00;99.90;;;;;;5108299;28;20335;-71
2021/01/26 09:21:46;;;;;;;13.57;11.57;;;2.00;99.90;;;;;;5109388;28;20190;-71
2021/01/26 09:24:20;;;;;;;14.10;11.80;;;2.00;99.90;;;;;;5109067;28;20254;-73
2021/01/26 09:26:47;;;;;;;12.87;11.33;;;2.00;99.90;;;;;;5109194;28;20205;-72
2021/01/26 09:29:23;;;;;;;13.73;11.20;;;2.20;99.90;;;;;;5115093;27;20668;-73
2021/01/26 09:31:49;;;;;;;13.40;11.07;;;2.20;99.90;;;;;;5115465;27;20210;-72
2021/01/26 09:34:23;;;;;;;13.47;11.30;;;2.20;99.90;;;;;;5119224;27;20392;-72
2021/01/26 09:36:50;;;;;;;18.07;16.17;;;2.20;99.90;;;;;;5100428;27;20187;-72
2021/01/26 09:39:18;;;;;;;17.87;15.57;;;2.40;99.90;;;;;;5115232;27;20226;-72
2021/01/26 09:41:45;;;;;;;13.47;11.27;;;2.50;99.90;;;;;;5114581;27;20201;-71
2021/01/26 09:44:13;;;;;;;14.67;11.33;;;2.50;99.90;;;;;;5117205;27;20202;-71
2021/01/26 09:46:41;;;;;;;13.53;11.67;;;2.40;99.90;;;;;;5128659;27;20212;-71
2021/01/26 09:49:11;;;;;;;11.57;10.37;;;2.50;99.90;;;;;;5128815;27;20205;-71
2021/01/26 09:51:41;;;;;;;14.07;11.63;;;2.60;99.90;;;;;;5129253;27;20213;-71
2021/01/26 09:54:13;;;;;;;12.90;11.53;;;2.70;99.90;;;;;;5129060;27;20208;-71
2021/01/26 09:56:40;;;;;;;13.37;11.43;;;2.90;99.90;;;;;;5128961;27;20662;-71
2021/01/26 09:59:09;;;;;;;15.70;11.53;;;3.00;99.90;;;;;;5128512;27;20237;-71
2021/01/26 10:01:38;;;;;;;13.50;11.27;;;3.10;99.90;;;;;;5114003;27;20202;-71
2021/01/26 10:04:06;;;;;;;13.80;11.50;;;3.20;99.90;;;;;;5098423;28;20194;-71
2021/01/26 10:06:34;;;;;;;13.10;11.70;;;3.20;99.90;;;;;;5108160;28;20224;-71
2021/01/26 10:09:18;;;;;;;13.37;11.77;;;3.20;99.90;;;;;;5108347;28;20229;-71
2021/01/26 10:11:44;;;;;;;15.67;12.77;;;3.20;99.90;;;;;;5108640;28;20194;-71
2021/01/26 10:14:16;;;;;;;12.47;11.17;;;3.30;99.90;;;;;;5109109;28;20201;-71
2021/01/26 10:16:46;;;;;;;13.67;11.80;;;3.40;99.90;;;;;;5112684;28;20208;-71
2021/01/26 10:19:15;;;;;;;14.07;12.10;;;3.50;99.90;;;;;;5112209;28;20680;-71
2021/01/26 10:21:42;;;;;;;13.63;11.80;;;3.50;99.90;;;;;;5112650;28;20205;-71
2021/01/26 10:24:21;;;;;;;16.23;12.50;;;3.50;99.90;;;;;;5112544;28;20202;-71
2021/01/26 10:26:48;;;;;;;14.63;11.87;;;3.60;99.90;;;;;;5123751;27;20188;-71
2021/01/26 10:29:24;;;;;;;13.27;11.63;;;3.60;99.90;;;;;;5123418;27;20243;-71
2021/01/26 10:31:54;;;;;;;13.90;12.40;;;3.60;99.90;;;;;;5120345;27;20664;-71
2021/01/26 10:34:34;;;;;;;13.83;12.13;;;3.70;99.90;;;;;;5121443;27;20194;-71
2021/01/26 10:37:29;;;;;;;13.70;12.10;;;3.70;99.90;;;;;;5120578;27;20362;-71
2021/01/26 10:40:16;;;;;;;16.60;11.70;;;3.70;99.90;;;;;;5118773;27;20212;-71
2021/01/26 10:42:54;;;;;;;14.13;12.07;;;3.60;99.90;;;;;;5115069;27;20194;-71
2021/01/26 10:45:37;;;;;;;16.73;12.50;;;3.60;99.90;;;;;;5114933;27;20657;-71
2021/01/26 10:48:10;;;;;;;13.93;12.33;;;3.60;99.90;;;;;;5120560;27;20656;-71
2021/01/26 10:50:37;;;;;;;17.50;12.57;;;3.40;99.90;;;;;;5118858;27;20198;-71
2021/01/26 10:53:03;;;;;;;16.03;12.07;;;3.40;99.90;;;;;;5122861;27;20198;-71
2021/01/26 10:55:31;;;;;;;15.20;12.70;;;3.40;99.90;;;;;;5119718;27;20251;-70
2021/01/26 10:57:57;;;;;;;17.20;14.10;;;3.30;99.90;;;;;;5122859;27;20225;-71
2021/01/26 11:00:26;;;;;;;16.20;12.90;;;3.40;99.90;;;;;;5115540;27;20233;-71
2021/01/26 11:02:53;;;;;;;15.03;13.10;;;3.50;99.90;;;;;;5118049;27;20190;-71
2021/01/26 11:05:21;;;;;;;15.27;12.80;;;3.50;99.90;;;;;;5119560;27;20201;-71
2021/01/26 11:07:47;;;;;;;15.37;12.87;;;3.60;99.90;;;;;;5119364;27;20252;-70
2021/01/26 11:10:14;;;;;;;14.60;13.00;;;3.50;99.90;;;;;;5119008;27;20227;-70
2021/01/26 11:12:42;;;;;;;15.37;13.70;;;3.40;99.90;;;;;;5121154;27;20194;-71
2021/01/26 11:15:12;;;;;;;15.57;13.23;;;3.50;99.90;;;;;;5111145;27;20236;-71
2021/01/26 11:17:38;;;;;;;17.53;12.83;;;3.80;99.90;;;;;;5118833;27;20195;-71
2021/01/26 11:20:07;;;;;;;15.37;13.47;;;3.80;99.90;;;;;;5099061;28;20337;-72
2021/01/26 11:22:33;;;;;;;16.13;12.60;;;4.00;99.90;;;;;;5110876;28;20194;-72
2021/01/26 11:25:00;;;;;;;17.30;13.90;;;4.10;99.90;;;;;;5110933;28;20576;-71
2021/01/26 11:27:26;;;;;;;16.13;13.20;;;4.30;99.90;;;;;;5111171;27;20217;-71
2021/01/26 11:29:54;;;;;;;14.70;13.13;;;4.40;99.90;;;;;;5111453;27;20210;-71
2021/01/26 11:32:20;;;;;;;15.73;13.27;;;4.60;99.90;;;;;;5111303;28;20206;-71
2021/01/26 11:34:47;;;;;;;16.00;13.70;;;4.50;99.90;;;;;;5111575;28;20206;-71
2021/01/26 11:37:13;;;;;;;15.60;13.27;;;4.60;99.90;;;;;;5110795;28;20213;-71
2021/01/26 11:39:39;;;;;;;15.13;12.73;;;4.50;99.90;;;;;;5110837;28;20234;-71
2021/01/26 11:42:06;;;;;;;15.33;13.20;;;4.60;99.90;;;;;;5109646;28;20209;-71
2021/01/26 11:44:32;;;;;;;15.27;13.23;;;4.40;99.90;;;;;;5110644;28;20211;-71
2021/01/26 11:46:59;;;;;;;15.40;13.07;;;4.50;99.90;;;;;;5110905;28;20237;-71
2021/01/26 11:49:25;;;;;;;17.73;13.47;;;4.60;99.90;;;;;;5110952;28;20218;-71
2021/01/26 11:51:52;;;;;;;15.70;14.00;;;4.60;99.90;;;;;;5110917;28;20210;-71
2021/01/26 11:54:18;;;;;;;15.87;13.13;;;4.70;99.90;;;;;;5104220;28;20202;-71
2021/01/26 11:56:44;;;;;;;16.80;13.50;;;4.90;99.90;;;;;;5107395;28;20205;-70
2021/01/26 11:59:10;;;;;;;15.10;13.43;;;5.10;99.90;;;;;;5098471;27;20242;-70
2021/01/26 12:01:37;;;;;;;15.17;13.37;;;5.10;99.90;;;;;;5107808;28;20203;-71
2021/01/26 12:04:04;;;;;;;16.60;14.33;;;5.10;99.90;;;;;;5110246;28;20703;-70
2021/01/26 12:06:30;;;;;;;20.23;14.80;;;5.00;99.90;;;;;;5110543;28;20661;-71
2021/01/26 12:08:57;;;;;;;17.37;13.70;;;5.00;99.90;;;;;;5109799;28;20230;-70
2021/01/26 12:11:23;;;;;;;17.20;13.70;;;4.90;99.90;;;;;;5110373;28;20228;-70
2021/01/26 12:13:49;;;;;;;16.63;13.40;;;4.80;99.90;;;;;;5110194;28;20676;-70
2021/01/26 12:16:15;;;;;;;15.83;13.63;;;4.60;99.90;;;;;;5109907;27;20217;-71
2021/01/26 12:18:42;;;;;;;16.43;13.50;;;4.40;99.90;;;;;;5120445;27;20197;-71
2021/01/26 12:21:09;;;;;;;17.70;14.17;;;4.10;99.90;;;;;;5120572;27;20233;-70
2021/01/26 12:23:35;;;;;;;16.33;13.93;;;4.00;99.90;;;;;;5120331;27;20197;-70
2021/01/26 12:26:03;;;;;;;14.73;13.00;;;3.90;99.90;;;;;;5122349;27;20198;-71
2021/01/26 12:28:29;;;;;;;15.87;13.10;;;3.90;99.90;;;;;;5118185;27;20668;-71
2021/01/26 12:30:56;;;;;;;14.70;12.70;;;3.80;99.90;;;;;;5120296;27;20243;-71
2021/01/26 12:33:22;;;;;;;16.77;12.70;;;3.70;99.90;;;;;;5117229;27;20201;-70
2021/01/26 12:35:49;;;;;;;14.40;12.90;;;3.60;99.90;;;;;;5120199;27;20201;-70
2021/01/26 12:38:16;;;;;;;14.83;12.37;;;3.60;99.90;;;;;;5114617;27;20211;-71
2021/01/26 12:40:43;;;;;;;17.30;12.93;;;3.60;99.90;;;;;;5120672;27;20569;-71
2021/01/26 12:43:10;;;;;;;13.07;11.77;;;3.60;99.90;;;;;;5120360;27;20216;-70
2021/01/26 12:45:37;;;;;;;16.13;12.80;;;3.60;99.90;;;;;;5118672;27;20215;-70
2021/01/26 12:48:04;;;;;;;17.10;12.83;;;3.60;99.90;;;;;;5115845;27;20250;-70
2021/01/26 12:50:34;;;;;;;15.77;12.97;;;3.60;99.90;;;;;;5117069;27;20653;-71
2021/01/26 12:53:00;;;;;;;14.17;12.00;;;3.70;99.90;;;;;;5118916;27;20198;-70
2021/01/26 12:55:28;;;;;;;15.67;12.33;;;3.60;99.90;;;;;;5112165;27;20195;-71
2021/01/26 12:57:54;;;;;;;14.43;12.93;;;3.60;99.90;;;;;;5114015;27;20239;-71
2021/01/26 13:00:22;;;;;;;16.10;12.07;;;3.70;99.90;;;;;;5116709;27;20225;-70
2021/01/26 13:02:49;;;;;;;14.30;12.30;;;3.70;99.90;;;;;;5122885;27;20213;-71
2021/01/26 13:05:17;;;;;;;14.30;12.47;;;3.70;99.90;;;;;;5120996;27;20287;-71